Data for 04/21/2014

Time Sea-Level Adjusted Pressure Absolute Pressure Temperature Relative Humidity Dew Point   
(mb) (inHg) (mb) (inHg) (C) (F) (%) (C) (F)
00:05 1024 30.24 853 25.19 4.3 39.8 35 -9.8 14.4
00:10 1024 30.24 854 25.22 4.6 40.2 34 -10.2 13.7
00:15 1024 30.24 854 25.22 4.6 40.3 36 -9.3 15.3
00:20 1024 30.24 854 25.22 4 39.2 38 -9 15.8
00:25 1024 30.24 854 25.22 3.5 38.2 41 -8.7 16.3
00:30 1024 30.24 854 25.22 3.2 37.7 42 -8.6 16.4
00:35 1024 30.24 854 25.22 2.9 37.3 42 -8.6 16.5
00:40 1024 30.24 854 25.22 2.8 37.1 42 -9 15.9
00:45 1024 30.24 854 25.22 3 37.4 42 -8.9 16.1
00:50 1024 30.24 854 25.22 2.9 37.3 41 -9.1 15.6
00:55 1025 30.27 854 25.22 3.2 37.8 39 -9.5 14.8
01:00 1025 30.27 854 25.22 3.6 38.5 37 -9.8 14.4
01:05 1024 30.24 854 25.22 3.7 38.7 38 -9.3 15.2
01:10 1024 30.24 854 25.22 3.4 38.1 39 -9.2 15.4
01:15 1024 30.24 854 25.22 3.3 37.9 40 -9 15.8
01:20 1025 30.27 854 25.22 3.2 37.7 40 -9.1 15.5
01:25 1025 30.27 854 25.22 3.1 37.5 42 -8.6 16.5
01:30 1025 30.27 854 25.22 2.6 36.7 42 -8.9 16
01:35 1024 30.24 854 25.22 2.7 36.9 42 -9.1 15.6
01:40 1024 30.24 854 25.22 2.9 37.2 41 -9 15.9
01:45 1024 30.24 854 25.22 2.8 37.1 42 -8.9 16
01:50 1024 30.24 854 25.22 2.7 36.9 42 -8.9 16
01:55 1024 30.24 854 25.22 2.7 36.9 41 -9.2 15.5
02:00 1024 30.24 854 25.22 2.9 37.2 40 -9.4 15.1
02:05 1024 30.24 854 25.22 3 37.3 40 -9.3 15.2
02:10 1024 30.24 854 25.22 2.9 37.3 40 -9.3 15.3
02:15 1024 30.24 854 25.22 2.9 37.3 39 -9.6 14.7
02:20 1024 30.24 854 25.22 3 37.3 39 -9.5 14.9
02:25 1024 30.24 854 25.22 2.6 36.8 44 -8.3 17
02:30 1024 30.24 854 25.22 2.1 35.7 45 -8.7 16.4
02:35 1025 30.27 854 25.22 2.2 35.9 45 -8.6 16.5
02:40 1025 30.27 854 25.22 2.3 36.2 44 -8.9 16.1
02:45 1025 30.27 854 25.22 2.3 36.1 43 -8.9 15.9
02:50 1025 30.27 854 25.22 2.4 36.3 43 -9.1 15.6
02:55 1025 30.27 854 25.22 2.4 36.4 43 -8.8 16.2
03:00 1025 30.27 854 25.22 2.4 36.2 42 -9.2 15.5
03:05 1025 30.27 854 25.22 2.6 36.6 41 -9.3 15.2
03:10 1025 30.27 854 25.22 2.6 36.7 42 -9 15.7
03:15 1025 30.27 854 25.22 2.4 36.4 43 -9 15.8
03:20 1025 30.27 854 25.22 2.4 36.2 43 -9.1 15.6
03:25 1025 30.27 854 25.22 2.5 36.5 42 -9.2 15.4
03:30 1025 30.27 854 25.22 2.5 36.5 43 -8.9 16
03:35 1025 30.27 854 25.22 2.4 36.3 41 -9.6 14.7
03:40 1025 30.27 854 25.22 2.8 37 40 -9.5 15
03:45 1025 30.27 854 25.22 2.8 37 40 -9.4 15
03:50 1025 30.27 854 25.22 2.5 36.5 42 -9 15.8
03:55 1025 30.27 854 25.22 2.5 36.5 40 -9.7 14.6
04:00 1025 30.27 854 25.22 2.7 36.9 40 -9.5 14.9
04:05 1025 30.27 854 25.22 2.7 36.9 41 -9.4 15.1
04:10 1025 30.27 854 25.22 2.6 36.7 42 -9.2 15.5
04:15 1025 30.27 854 25.22 2.4 36.4 42 -9.1 15.6
04:20 1025 30.27 854 25.22 2.4 36.3 43 -8.9 16
04:25 1025 30.27 854 25.22 2.4 36.3 44 -8.8 16.1
04:30 1025 30.27 854 25.22 2.1 35.9 44 -8.8 16.2
04:35 1025 30.27 854 25.22 1.9 35.5 45 -8.8 16.1
04:40 1025 30.27 854 25.22 1.7 35.1 46 -8.8 16.2
04:45 1025 30.27 854 25.22 1.7 35.1 45 -8.9 16
04:50 1025 30.27 854 25.22 1.6 34.9 46 -8.8 16.2
04:55 1025 30.27 854 25.22 1.8 35.2 44 -9.2 15.5
05:00 1025 30.27 854 25.22 2 35.6 44 -9 15.8
05:05 1025 30.27 854 25.22 1.7 35.1 46 -8.6 16.6
05:10 1025 30.27 854 25.22 1.3 34.4 48 -8.5 16.6
05:15 1025 30.27 854 25.22 1.1 33.9 49 -8.4 16.9
05:20 1025 30.27 854 25.22 0.9 33.6 49 -8.6 16.6
05:25 1025 30.27 854 25.22 0.8 33.4 50 -8.6 16.5
05:30 1025 30.27 854 25.22 0.8 33.5 49 -8.6 16.5
05:35 1025 30.27 854 25.22 1 33.8 50 -8.4 16.9
05:40 1025 30.27 854 25.22 0.8 33.5 50 -8.5 16.6
05:45 1025 30.27 854 25.22 1 33.9 47 -9 15.7
05:50 1025 30.27 854 25.22 1.5 34.7 45 -9.1 15.6
05:55 1025 30.27 854 25.22 1.7 35.1 44 -9.1 15.6
06:00 1025 30.27 854 25.22 1.9 35.4 45 -8.9 16
06:05 1025 30.27 854 25.22 1.9 35.3 45 -8.9 15.9
06:10 1025 30.27 854 25.22 1.9 35.5 45 -8.9 16.1
06:15 1025 30.27 854 25.22 2.1 35.8 45 -8.7 16.4
06:20 1025 30.27 854 25.22 2.2 36 45 -8.6 16.5
06:25 1025 30.27 854 25.22 2.4 36.2 44 -8.6 16.6
06:30 1024 30.24 854 25.22 2.3 36.2 45 -8.5 16.6
06:35 1024 30.24 854 25.22 2.4 36.3 45 -8.4 17
06:40 1024 30.24 854 25.22 2.5 36.5 46 -7.9 17.7
06:45 1024 30.24 854 25.22 2.5 36.4 46 -8.1 17.3
06:50 1024 30.24 854 25.22 2.9 37.3 42 -8.8 16.2
06:55 1024 30.24 854 25.22 3.4 38.2 40 -8.8 16.2
07:00 1025 30.27 854 25.22 4.1 39.4 38 -8.8 16.1
07:05 1025 30.27 854 25.22 4.6 40.4 37 -8.8 16.2
07:10 1025 30.27 854 25.22 4.8 40.7 35 -9.4 15.1
07:15 1025 30.27 854 25.22 5.3 41.6 34 -9.3 15.3
07:20 1025 30.27 854 25.22 5.9 42.5 31 -9.9 14.2
07:25 1025 30.27 854 25.22 6.3 43.3 32 -9.4 15.1
07:30 1025 30.27 854 25.22 6.8 44.2 31 -9 15.8
07:35 1025 30.27 854 25.22 7.3 45.2 32 -8.3 17.1
07:40 1025 30.27 854 25.22 7.3 45.1 30 -9 15.8
07:45 1025 30.27 854 25.22 7.7 45.9 30 -8.8 16.2
07:50 1025 30.27 854 25.22 7.9 46.1 29 -9 15.7
07:55 1025 30.27 854 25.22 8.2 46.7 29 -9 15.9
08:00 1025 30.27 854 25.22 8.7 47.6 28 -8.8 16.2
08:05 1025 30.27 854 25.22 8.8 47.8 28 -8.5 16.6
08:10 1025 30.27 854 25.22 9.4 48.9 27 -8.6 16.6
08:15 1025 30.27 854 25.22 9.5 49.2 27 -8.4 16.9
08:20 1025 30.27 854 25.22 9.9 49.7 29 -7.4 18.8
08:25 1024 30.24 854 25.22 9.6 49.3 29 -7.5 18.4
08:30 1024 30.24 854 25.22 9.3 48.8 29 -7.7 18.2
08:35 1024 30.24 853 25.19 9.6 49.2 29 -7.6 18.4
08:40 1024 30.24 853 25.19 9.7 49.5 28 -7.8 18
08:45 1024 30.24 853 25.19 10.3 50.5 28 -7.3 18.8
08:50 1024 30.24 853 25.19 10.8 51.4 27 -7.4 18.6
08:55 1024 30.24 853 25.19 10.3 50.5 28 -7.3 18.9
09:00 1024 30.24 853 25.19 10.1 50.1 27 -8.2 17.3
09:05 1024 30.24 853 25.19 10.6 51 27 -7.7 18.1
09:10 1024 30.24 853 25.19 10.8 51.4 26 -8.1 17.4
09:15 1024 30.24 853 25.19 11.4 52.5 25 -7.7 18.1
09:20 1024 30.24 853 25.19 10.9 51.6 25 -8.5 16.8
09:25 1024 30.24 853 25.19 10.8 51.4 26 -8 17.6
09:30 1024 30.24 853 25.19 11.6 52.8 24 -8.3 17.1
09:35 1023 30.21 853 25.19 11.3 52.4 25 -7.9 17.9
09:40 1023 30.21 853 25.19 11.2 52.1 26 -7.6 18.4
09:45 1023 30.21 853 25.19 12.2 54 23 -8.1 17.4
09:50 1023 30.21 853 25.19 13.1 55.7 23 -7.6 18.4
09:55 1023 30.21 853 25.19 12.5 54.6 23 -7.9 17.8
10:00 1023 30.21 852 25.16 13.2 55.7 22 -7.9 17.8
10:05 1023 30.21 852 25.16 14 57.1 19 -9.2 15.4
10:10 1023 30.21 852 25.16 13.5 56.4 20 -8.9 15.9
10:15 1023 30.21 852 25.16 14.1 57.4 20 -8.3 17.1
10:20 1023 30.21 852 25.16 13.7 56.6 20 -8.8 16.2
10:25 1023 30.21 852 25.16 14.9 58.7 18 -9 15.9
10:30 1023 30.21 852 25.16 15.1 59.2 19 -8.3 17.1
10:35 1023 30.21 852 25.16 15.3 59.5 18 -8.9 15.9
10:40 1023 30.21 852 25.16 15.9 60.7 17 -9.2 15.4
10:45 1023 30.21 852 25.16 16.1 60.9 17 -9 15.8
10:50 1023 30.21 852 25.16 16 60.8 17 -8.9 16
10:55 1023 30.21 852 25.16 15.7 60.2 18 -8.6 16.5
11:00 1023 30.21 852 25.16 15.1 59.1 18 -9.3 15.3
11:05 1023 30.21 852 25.16 15.9 60.7 17 -9.1 15.5
11:10 1023 30.21 852 25.16 16.2 61.2 17 -8.7 16.3
11:15 1022 30.18 852 25.16 15.6 60 18 -8.7 16.3
11:20 1022 30.18 851 25.13 15.5 59.9 18 -8.8 16.1
11:25 1022 30.18 851 25.13 15.1 59.2 18 -8.9 15.9
11:30 1022 30.18 851 25.13 15.3 59.5 18 -8.8 16.2
11:35 1022 30.18 851 25.13 16.1 61 18 -8.3 17.1
11:40 1022 30.18 851 25.13 15.9 60.6 17 -8.8 16.2
11:45 1022 30.18 851 25.13 16.7 62.1 17 -8.6 16.4
11:50 1022 30.18 851 25.13 16.6 61.9 18 -8 17.6
11:55 1022 30.18 851 25.13 15.7 60.3 18 -8.2 17.2
12:00 1022 30.18 851 25.13 16.5 61.6 17 -8.8 16.2
12:05 1022 30.18 851 25.13 16.8 62.3 17 -8.1 17.4
12:10 1021 30.15 851 25.13 17.6 63.6 17 -7.8 18
12:15 1021 30.15 850 25.1 17.4 63.4 16 -8.9 15.9
12:20 1021 30.15 850 25.1 17.2 62.9 17 -8.4 16.9
12:25 1021 30.15 850 25.1 17.5 63.5 16 -8.9 16
12:30 1021 30.15 850 25.1 17.1 62.7 16 -8.9 16
12:35 1021 30.15 850 25.1 17.9 64.3 15 -9.1 15.6
12:40 1021 30.15 850 25.1 17.5 63.5 15 -9.1 15.7
12:45 1021 30.15 850 25.1 17.8 64 15 -9 15.8
12:50 1021 30.15 850 25.1 17.9 64.3 15 -8.9 15.9
12:55 1021 30.15 850 25.1 17.8 64.1 15 -8.8 16.2
13:00 1021 30.15 850 25.1 16.9 62.4 15 -9.9 14.2
13:05 1021 30.15 850 25.1 16.7 62.1 15 -9.9 14.2
13:10 1020 30.12 850 25.1 17 62.5 15 -9.6 14.7
13:15 1020 30.12 850 25.1 17.2 62.9 15 -10 14
13:20 1020 30.12 849 25.07 18.4 65.1 14 -9.6 14.7
13:25 1020 30.12 849 25.07 18.7 65.6 14 -9.1 15.7
13:30 1020 30.12 849 25.07 19 66.1 15 -8.6 16.5
13:35 1020 30.12 849 25.07 18.4 65.1 14 -9.1 15.6
13:40 1020 30.12 849 25.07 18.2 64.7 15 -9.1 15.5
13:45 1020 30.12 849 25.07 17.9 64.3 15 -9.2 15.4
13:50 1020 30.12 849 25.07 17.9 64.2 15 -9.2 15.4
13:55 1020 30.12 849 25.07 18 64.4 15 -9.3 15.2
14:00 1020 30.12 849 25.07 18 64.5 15 -8.9 15.9
14:05 1019 30.09 849 25.07 18.1 64.5 15 -9.1 15.7
14:10 1019 30.09 849 25.07 18 64.3 14 -9.6 14.7
14:15 1019 30.09 849 25.07 18.5 65.3 14 -9.2 15.4
14:20 1019 30.09 848 25.04 18.4 65.1 14 -9.4 15.1
14:25 1019 30.09 848 25.04 18.3 65 14 -9.3 15.2
14:30 1019 30.09 848 25.04 18.3 64.9 14 -9.4 15
14:35 1019 30.09 848 25.04 18.7 65.6 14 -9 15.7
14:40 1019 30.09 848 25.04 18.4 65 14 -9.4 15.1
14:45 1019 30.09 848 25.04 18.7 65.7 14 -9.4 15.1
14:50 1018 30.06 848 25.04 18.7 65.7 15 -8.8 16.2
14:55 1018 30.06 847 25.01 18.6 65.4 15 -8.9 15.9
15:00 1018 30.06 847 25.01 18.6 65.6 15 -8.8 16.2
15:05 1018 30.06 847 25.01 18.7 65.6 14 -9 15.8
15:10 1018 30.06 847 25.01 18.6 65.4 14 -9.1 15.5
15:15 1018 30.06 847 25.01 18.3 65 15 -8.8 16.1
15:20 1018 30.06 847 25.01 18.8 65.9 14 -8.8 16.1
15:25 1018 30.06 847 25.01 18.7 65.7 15 -8.4 16.8
15:30 1018 30.06 847 25.01 17.8 64.1 15 -8.7 16.3
15:35 1018 30.06 847 25.01 18 64.4 15 -9 15.8
15:40 1018 30.06 847 25.01 18.4 65.1 14 -9.1 15.6
15:45 1018 30.06 847 25.01 18.7 65.6 15 -8.3 17
15:50 1018 30.06 847 25.01 18.4 65 15 -8.3 17
15:55 1018 30.06 847 25.01 18.3 64.9 15 -8.8 16.2
16:00 1018 30.06 847 25.01 18 64.5 15 -8.9 16
16:05 1017 30.03 847 25.01 18.3 64.9 14 -9.2 15.4
16:10 1017 30.03 847 25.01 18.3 65 15 -8.4 16.9
16:15 1017 30.03 847 25.01 18.4 65.2 16 -8 17.6
16:20 1017 30.03 846 24.98 18.1 64.5 17 -7.4 18.7
16:25 1017 30.03 846 24.98 17.9 64.1 17 -7.7 18.2
16:30 1017 30.03 846 24.98 17.7 63.8 18 -7.2 19.1
16:35 1017 30.03 846 24.98 17.4 63.2 18 -6.9 19.5
16:40 1017 30.03 846 24.98 17.2 63 18 -7.1 19.2
16:45 1017 30.03 846 24.98 17.3 63.2 19 -6.7 19.9
16:50 1017 30.03 846 24.98 17.4 63.2 19 -6.6 20.1
16:55 1017 30.03 846 24.98 17.4 63.3 19 -6.3 20.6
17:00 1017 30.03 846 24.98 17.3 63.1 20 -5.9 21.3
17:05 1017 30.03 846 24.98 17 62.6 20 -5.8 21.5
17:10 1017 30.03 846 24.98 16.8 62.3 20 -5.9 21.3
17:15 1017 30.03 846 24.98 16.8 62.2 21 -5.5 22.1
17:20 1017 30.03 846 24.98 16.7 62.1 21 -5.4 22.2
17:25 1017 30.03 846 24.98 16.6 61.8 22 -5.4 22.3
17:30 1017 30.03 846 24.98 16.4 61.6 22 -5.3 22.5
17:35 1017 30.03 846 24.98 16.5 61.6 21 -5.7 21.7
17:40 1017 30.03 846 24.98 16.3 61.4 22 -5.6 21.9
17:45 1017 30.03 846 24.98 16.3 61.3 21 -5.9 21.4
17:50 1017 30.03 846 24.98 16.2 61.2 22 -5.7 21.8
17:55 1017 30.03 846 24.98 16.1 61 22 -5.6 21.9
18:00 1017 30.03 846 24.98 16 60.8 22 -5.5 22.1
18:05 1017 30.03 846 24.98 15.9 60.6 23 -5.3 22.4
18:10 1017 30.03 846 24.98 15.8 60.5 22 -5.7 21.7
18:15 1017 30.03 846 24.98 15.8 60.5 22 -5.6 21.9
18:20 1017 30.03 846 24.98 15.7 60.3 23 -5.4 22.2
18:25 1017 30.03 846 24.98 15.6 60 23 -5.5 22.1
18:30 1017 30.03 846 24.98 15.5 59.8 23 -5.6 22
18:35 1017 30.03 846 24.98 15.3 59.6 23 -5.6 21.9
18:40 1017 30.03 846 24.98 15.3 59.5 23 -5.6 21.9
18:45 1016 30 846 24.98 15.2 59.3 22 -6 21.1
18:50 1016 30 846 24.98 15.1 59.2 23 -6 21.3
18:55 1016 30 846 24.98 15 59 23 -5.7 21.7
19:00 1016 30 846 24.98 14.8 58.7 23 -5.9 21.4
19:05 1016 30 846 24.98 14.8 58.7 23 -6 21.2
19:10 1016 30 846 24.98 14.8 58.6 23 -6.1 21
19:15 1016 30 845 24.95 14.6 58.3 23 -6.1 21
19:20 1016 30 845 24.95 14.5 58 23 -6.1 21
19:25 1016 30 845 24.95 14.4 58 23 -6.2 20.8
19:30 1016 30 845 24.95 14.4 57.9 23 -6.3 20.6
19:35 1016 30 845 24.95 14.4 57.9 23 -6.4 20.5
19:40 1016 30 845 24.95 14.3 57.8 23 -6.2 20.8
19:45 1016 30 845 24.95 14.1 57.4 24 -6.1 20.9
19:50 1016 30 845 24.95 14 57.2 24 -6.3 20.7
19:55 1016 30 845 24.95 14 57.2 24 -6.1 21
20:00 1016 30 845 24.95 13.8 56.9 24 -6.1 21
20:05 1016 30 845 24.95 13.7 56.7 25 -6.1 21
20:10 1016 30 845 24.95 13.6 56.5 25 -6.1 20.9
20:15 1016 30 845 24.95 13.6 56.4 24 -6.4 20.5
20:20 1016 30 845 24.95 13.6 56.5 24 -6.3 20.6
20:25 1016 30 845 24.95 13.6 56.4 25 -6.2 20.8
20:30 1016 30 845 24.95 13.5 56.2 24 -6.4 20.5
20:35 1016 30 845 24.95 13.5 56.3 24 -6.4 20.5
20:40 1016 30 845 24.95 13.4 56.1 25 -6.3 20.7
20:45 1016 30 845 24.95 13.4 56.1 25 -6.2 20.8
20:50 1016 30 845 24.95 13.2 55.8 25 -6.3 20.7
20:55 1016 30 845 24.95 13.2 55.8 25 -6.2 20.8
21:00 1016 30 845 24.95 13.2 55.7 25 -6.4 20.5
21:05 1016 30 845 24.95 13.1 55.5 25 -6.3 20.6
21:10 1016 30 845 24.95 13.1 55.6 25 -6.2 20.8
21:15 1016 30 845 24.95 13 55.4 26 -6.3 20.7
21:20 1016 30 845 24.95 12.9 55.3 25 -6.4 20.5
21:25 1015 29.97 845 24.95 12.9 55.2 26 -6.2 20.8
21:30 1015 29.97 845 24.95 12.8 55 26 -6.1 21
21:35 1015 29.97 845 24.95 12.7 54.8 26 -6.1 21
21:40 1015 29.97 845 24.95 12.7 54.9 26 -6.4 20.5
21:45 1015 29.97 845 24.95 12.7 54.8 26 -6.2 20.8
21:50 1015 29.97 844 24.92 12.6 54.7 26 -6.5 20.2
21:55 1015 29.97 844 24.92 12.7 54.8 26 -6.2 20.8
22:00 1015 29.97 844 24.92 12.7 54.8 25 -6.6 20
22:05 1015 29.97 844 24.92 12.8 55 25 -6.5 20.2
22:10 1015 29.97 844 24.92 12.8 55 26 -6.4 20.5
22:15 1015 29.97 844 24.92 12.7 54.8 26 -6.3 20.6
22:20 1015 29.97 844 24.92 12.5 54.5 26 -6.3 20.6
22:25 1015 29.97 844 24.92 12.4 54.4 26 -6.6 20.1
22:30 1015 29.97 844 24.92 12.6 54.7 25 -6.7 19.9
22:35 1015 29.97 844 24.92 12.7 54.8 25 -6.8 19.8
22:40 1015 29.97 844 24.92 12.7 54.9 25 -7 19.4
22:45 1015 29.97 844 24.92 12.8 55 25 -6.7 19.9
22:50 1015 29.97 844 24.92 12.7 54.9 25 -7 19.4
22:55 1015 29.97 844 24.92 12.8 55 25 -6.9 19.6
23:00 1015 29.97 844 24.92 12.7 54.8 26 -6.5 20.3
23:05 1015 29.97 844 24.92 12.6 54.6 25 -6.8 19.7
23:10 1015 29.97 844 24.92 12.5 54.4 26 -6.5 20.2
23:15 1015 29.97 844 24.92 12.3 54.1 26 -6.5 20.3
23:20 1015 29.97 844 24.92 12.3 54.1 26 -6.6 20.1
23:25 1015 29.97 844 24.92 12.2 54 27 -6.4 20.6
23:30 1015 29.97 844 24.92 12.2 53.9 26 -6.8 19.7
23:35 1015 29.97 844 24.92 12.3 54.1 26 -6.6 20
23:40 1015 29.97 844 24.92 12.1 53.7 27 -6.2 20.9
23:45 1015 29.97 844 24.92 11.7 53.1 28 -6 21.2
23:50 1015 29.97 844 24.92 11.3 52.4 29 -5.9 21.3
23:55 1015 29.97 844 24.92 11.2 52.2 29 -6.1 21
24:00 1015 29.97 844 24.92 11.2 52.1 30 -5.9 21.4